createdAt,value
2022-10-23T00:01:20.902Z,17.60
2022-10-23T00:04:27.212Z,17.40
2022-10-23T00:10:41.380Z,17.50
2022-10-23T00:13:45.239Z,17.40
2022-10-23T00:16:48.241Z,16.20
2022-10-23T00:19:51.175Z,16.70
2022-10-23T00:22:54.196Z,17.40
2022-10-23T00:25:57.122Z,17.90
2022-10-23T00:29:00.332Z,16.50
2022-10-23T00:32:03.329Z,17.00
2022-10-23T00:35:06.591Z,16.50
2022-10-23T00:38:10.831Z,16.00
2022-10-23T00:41:21.376Z,16.20
2022-10-23T00:44:24.199Z,16.00
2022-10-23T00:47:27.143Z,16.60
2022-10-23T00:50:32.998Z,16.30
2022-10-23T00:53:35.818Z,15.70
2022-10-23T00:56:42.001Z,14.70
2022-10-23T00:59:44.925Z,15.10
2022-10-23T01:02:48.064Z,14.60
2022-10-23T01:05:54.145Z,14.50
2022-10-23T01:09:05.126Z,13.50
2022-10-23T01:12:33.660Z,13.00
2022-10-23T01:15:45.770Z,13.80
2022-10-23T01:19:07.428Z,13.60
2022-10-23T01:22:28.137Z,14.10
2022-10-23T01:25:46.354Z,13.50
2022-10-23T01:29:20.164Z,13.90
2022-10-23T01:32:40.503Z,14.40
2022-10-23T01:35:48.526Z,14.60
2022-10-23T01:39:00.494Z,14.50
2022-10-23T01:42:15.716Z,14.10
2022-10-23T01:45:30.242Z,14.20
2022-10-23T01:48:35.934Z,13.70
2022-10-23T01:51:41.483Z,13.70
2022-10-23T01:54:47.709Z,13.30
2022-10-23T01:57:53.018Z,14.00
2022-10-23T02:01:01.585Z,14.10
2022-10-23T02:04:08.729Z,14.50
2022-10-23T02:07:11.806Z,13.00
2022-10-23T02:10:15.923Z,13.90
2022-10-23T02:13:27.813Z,13.20
2022-10-23T02:16:50.717Z,13.00
2022-10-23T02:20:12.565Z,12.10
2022-10-23T02:23:22.470Z,14.00
2022-10-23T02:26:30.580Z,14.40
2022-10-23T02:29:45.195Z,14.70
2022-10-23T02:32:52.427Z,14.10
2022-10-23T02:35:55.348Z,14.70
2022-10-23T02:38:59.067Z,16.50
2022-10-23T02:42:22.103Z,16.10
2022-10-23T02:45:35.062Z,16.70
2022-10-23T02:49:04.866Z,17.20
2022-10-23T02:52:16.089Z,18.50
2022-10-23T02:55:32.630Z,19.30
2022-10-23T02:58:59.379Z,19.00
2022-10-23T03:02:26.162Z,20.30
2022-10-23T03:05:39.143Z,21.00
2022-10-23T03:08:50.004Z,21.30
2022-10-23T03:11:54.254Z,22.20
2022-10-23T03:14:57.152Z,24.30
2022-10-23T03:18:01.212Z,24.80
2022-10-23T03:21:04.118Z,26.50
2022-10-23T03:24:09.426Z,25.10
2022-10-23T03:27:18.276Z,25.20
2022-10-23T03:30:21.198Z,26.50
2022-10-23T03:33:26.224Z,26.00
2022-10-23T03:36:29.314Z,25.40
2022-10-23T03:39:32.391Z,25.80
2022-10-23T03:42:35.201Z,26.40
2022-10-23T03:45:38.606Z,25.50
2022-10-23T03:48:42.154Z,24.90
2022-10-23T03:51:51.938Z,25.20
2022-10-23T03:54:56.815Z,25.20
2022-10-23T03:57:59.785Z,24.70
2022-10-23T04:01:02.933Z,26.70
2022-10-23T04:04:05.887Z,25.60
2022-10-23T04:07:08.901Z,26.10
2022-10-23T04:10:12.039Z,27.00
2022-10-23T04:13:15.384Z,27.70
2022-10-23T04:16:18.517Z,27.00
2022-10-23T04:19:21.410Z,29.20
2022-10-23T04:22:27.466Z,28.50
2022-10-23T04:25:31.471Z,28.50
2022-10-23T04:28:34.434Z,29.50
2022-10-23T04:31:37.466Z,28.70
2022-10-23T04:34:40.348Z,27.20
2022-10-23T04:37:44.015Z,27.50
2022-10-23T04:40:47.064Z,26.90
2022-10-23T04:43:55.324Z,27.80
2022-10-23T04:46:58.244Z,28.10
2022-10-23T04:50:01.330Z,27.00
2022-10-23T04:53:23.254Z,27.30
2022-10-23T04:57:04.921Z,26.60
2022-10-23T05:00:24.020Z,26.80
2022-10-23T05:03:29.946Z,26.60
2022-10-23T05:06:33.417Z,25.30
2022-10-23T05:10:03.567Z,24.10
2022-10-23T05:13:23.956Z,24.10
2022-10-23T05:16:47.049Z,23.80
2022-10-23T05:19:54.619Z,25.20
2022-10-23T05:23:00.593Z,25.80
2022-10-23T05:26:04.951Z,25.30
2022-10-23T05:29:08.261Z,25.80
2022-10-23T05:32:14.317Z,26.10
2022-10-23T05:35:23.220Z,25.30
2022-10-23T05:38:29.350Z,25.90
2022-10-23T05:41:32.462Z,25.50
2022-10-23T05:44:35.575Z,26.10
2022-10-23T05:47:56.530Z,24.60
2022-10-23T05:51:24.149Z,26.10
2022-10-23T05:54:37.526Z,25.70
2022-10-23T05:57:56.822Z,25.20
2022-10-23T06:01:23.222Z,24.40
2022-10-23T06:04:38.190Z,24.80
2022-10-23T06:07:50.069Z,23.70
2022-10-23T06:10:54.007Z,24.20
2022-10-23T06:17:04.822Z,25.00
2022-10-23T06:20:13.674Z,25.20
2022-10-23T06:23:17.289Z,24.00
2022-10-23T06:26:35.314Z,23.70
2022-10-23T06:29:53.052Z,24.20
2022-10-23T06:32:56.057Z,24.50
2022-10-23T06:35:59.456Z,23.50
2022-10-23T06:39:02.374Z,23.50
2022-10-23T06:45:32.606Z,22.60
2022-10-23T06:48:50.410Z,21.60
2022-10-23T06:51:59.939Z,22.00
2022-10-23T06:55:03.099Z,23.20
2022-10-23T06:58:10.992Z,24.70
2022-10-23T07:01:23.993Z,22.60
2022-10-23T07:04:27.081Z,23.90
2022-10-23T07:07:30.769Z,23.40
2022-10-23T07:10:34.668Z,23.70
2022-10-23T07:13:38.951Z,23.30
2022-10-23T07:16:53.437Z,22.60
2022-10-23T07:19:57.541Z,21.70
2022-10-23T07:23:00.623Z,22.10
2022-10-23T07:26:15.320Z,20.60
2022-10-23T07:29:18.522Z,20.90
2022-10-23T07:32:23.996Z,20.30
2022-10-23T07:35:35.577Z,19.70
2022-10-23T07:38:44.280Z,20.60
2022-10-23T07:41:47.217Z,19.70
2022-10-23T07:44:50.459Z,20.80
2022-10-23T07:47:53.762Z,21.70
2022-10-23T07:51:08.632Z,23.30
2022-10-23T07:54:15.308Z,22.90
2022-10-23T07:57:50.088Z,22.30
2022-10-23T08:01:39.782Z,22.10
2022-10-23T08:04:43.359Z,21.10
2022-10-23T08:07:54.902Z,23.90
2022-10-23T08:10:58.589Z,23.10
2022-10-23T08:14:06.274Z,23.20
2022-10-23T08:17:10.077Z,23.50
2022-10-23T08:20:32.006Z,25.40
2022-10-23T08:23:35.230Z,25.40
2022-10-23T08:26:38.404Z,25.90
2022-10-23T08:29:41.678Z,26.70
2022-10-23T08:32:44.935Z,29.00
2022-10-23T08:35:49.780Z,28.70
2022-10-23T08:38:59.858Z,28.80
2022-10-23T08:42:03.124Z,27.70
2022-10-23T08:45:14.047Z,29.00
2022-10-23T08:48:28.714Z,27.90
2022-10-23T08:51:54.930Z,28.90
2022-10-23T08:55:23.357Z,29.70
2022-10-23T08:58:50.416Z,31.10
2022-10-23T09:02:02.152Z,29.60
2022-10-23T09:05:31.775Z,30.30
2022-10-23T09:08:53.009Z,27.20
2022-10-23T09:12:21.229Z,26.40
2022-10-23T09:15:39.395Z,28.80
2022-10-23T09:18:43.172Z,29.70
2022-10-23T09:21:50.039Z,29.70
2022-10-23T09:24:53.964Z,32.20
2022-10-23T09:28:02.903Z,30.90
2022-10-23T09:31:12.258Z,30.40
2022-10-23T09:34:21.385Z,34.20
2022-10-23T09:37:30.500Z,30.00
2022-10-23T09:40:42.353Z,24.20
2022-10-23T09:43:45.897Z,24.60
2022-10-23T09:49:59.719Z,25.50
2022-10-23T09:53:02.975Z,25.90
2022-10-23T09:56:28.421Z,26.80
2022-10-23T09:59:32.503Z,27.60
2022-10-23T10:02:37.495Z,27.60
2022-10-23T10:06:03.329Z,28.50
2022-10-23T10:09:13.307Z,25.80
2022-10-23T10:12:31.483Z,24.00
2022-10-23T10:15:46.549Z,22.30
2022-10-23T10:19:07.082Z,21.20
2022-10-23T10:22:35.369Z,20.00
2022-10-23T10:25:59.226Z,19.30
2022-10-23T10:29:20.078Z,17.80
2022-10-23T10:32:59.120Z,16.70
2022-10-23T10:36:08.508Z,16.30
2022-10-23T10:39:19.747Z,17.10
2022-10-23T10:42:58.734Z,17.90
2022-10-23T10:46:28.730Z,16.60
2022-10-23T10:49:53.197Z,15.20
2022-10-23T10:53:17.573Z,14.70
2022-10-23T10:56:26.270Z,14.70
2022-10-23T10:59:32.081Z,16.70
2022-10-23T11:02:47.116Z,17.00
2022-10-23T11:05:51.319Z,17.30
2022-10-23T11:09:09.268Z,17.50
2022-10-23T11:12:24.149Z,15.40
2022-10-23T11:15:45.946Z,13.30
2022-10-23T11:19:09.846Z,12.20
2022-10-23T11:22:32.165Z,11.30
2022-10-23T11:25:50.208Z,10.40
2022-10-23T11:29:16.560Z,11.10
2022-10-23T11:32:44.405Z,10.40
2022-10-23T11:36:06.230Z,10.20
2022-10-23T11:39:21.621Z,17.00
2022-10-23T11:42:48.900Z,14.80
2022-10-23T11:45:52.051Z,11.10
2022-10-23T11:48:56.680Z,10.60
2022-10-23T11:52:06.145Z,10.20
2022-10-23T11:55:29.419Z,10.00
2022-10-23T11:58:50.404Z,9.20
2022-10-23T12:01:55.163Z,9.60
2022-10-23T12:05:03.076Z,8.80
2022-10-23T12:08:19.340Z,9.00
2022-10-23T12:11:44.141Z,8.40
2022-10-23T12:14:51.698Z,8.50
2022-10-23T12:18:06.973Z,9.00
2022-10-23T12:21:17.229Z,8.60
2022-10-23T12:24:49.491Z,9.20
2022-10-23T12:28:06.027Z,9.60
2022-10-23T12:31:37.393Z,9.60
2022-10-23T12:35:09.889Z,9.00
2022-10-23T12:38:13.229Z,18.20
2022-10-23T12:41:27.531Z,9.70
2022-10-23T12:44:31.028Z,9.20
2022-10-23T12:47:34.185Z,7.60
2022-10-23T12:50:37.411Z,8.60
2022-10-23T12:53:40.477Z,8.30
2022-10-23T12:56:45.265Z,8.60
2022-10-23T12:59:48.989Z,9.60
2022-10-23T13:03:02.406Z,8.90
2022-10-23T13:06:05.487Z,7.90
2022-10-23T13:09:22.212Z,8.70
2022-10-23T13:12:50.743Z,7.50
2022-10-23T13:15:53.668Z,8.20
2022-10-23T13:18:56.597Z,8.30
2022-10-23T13:22:00.905Z,8.90
2022-10-23T13:25:20.864Z,8.40
2022-10-23T13:28:27.142Z,8.30
2022-10-23T13:31:33.928Z,8.70
2022-10-23T13:34:37.005Z,9.10
2022-10-23T13:37:40.069Z,8.20
2022-10-23T13:40:43.202Z,8.30
2022-10-23T13:43:47.414Z,8.10
2022-10-23T13:46:52.196Z,9.10
2022-10-23T13:49:55.070Z,8.80
2022-10-23T13:52:58.499Z,8.30
2022-10-23T13:56:01.543Z,9.10
2022-10-23T13:59:04.477Z,8.50
2022-10-23T14:02:24.443Z,8.20
2022-10-23T14:05:27.444Z,8.90
2022-10-23T14:08:30.345Z,8.70
2022-10-23T14:11:34.346Z,8.00
2022-10-23T14:14:37.363Z,8.00
2022-10-23T14:17:40.604Z,10.80
2022-10-23T14:20:43.490Z,11.50
2022-10-23T14:23:48.170Z,11.20
2022-10-23T14:26:51.199Z,10.00
2022-10-23T14:29:54.112Z,9.80
2022-10-23T14:32:57.045Z,10.40
2022-10-23T14:36:00.210Z,10.10
2022-10-23T14:39:03.102Z,9.80
2022-10-23T14:42:06.094Z,9.30
2022-10-23T14:45:09.562Z,11.10
2022-10-23T14:48:12.517Z,13.80
2022-10-23T14:51:25.524Z,13.80
2022-10-23T14:54:29.452Z,13.70
2022-10-23T14:57:32.459Z,12.10
2022-10-23T15:00:35.359Z,12.10
2022-10-23T15:03:38.354Z,15.00
2022-10-23T15:06:42.093Z,19.60
2022-10-23T15:09:45.103Z,18.50
2022-10-23T15:12:48.669Z,17.50
2022-10-23T15:16:01.542Z,15.60
2022-10-23T15:19:04.533Z,12.30
2022-10-23T15:22:07.498Z,12.20
2022-10-23T15:25:13.128Z,11.60
2022-10-23T15:28:18.472Z,13.00
2022-10-23T15:31:41.472Z,13.60
2022-10-23T15:34:47.971Z,13.70
2022-10-23T15:37:50.995Z,15.10
2022-10-23T15:41:03.977Z,13.60
2022-10-23T15:44:09.214Z,16.10
2022-10-23T15:47:12.132Z,14.10
2022-10-23T15:50:15.139Z,13.60
2022-10-23T15:53:18.169Z,12.50
2022-10-23T15:56:21.138Z,11.80
2022-10-23T15:59:25.311Z,13.10
2022-10-23T16:02:28.324Z,12.90
2022-10-23T16:05:31.379Z,12.00
2022-10-23T16:08:34.672Z,12.70
2022-10-23T16:11:39.969Z,11.80
2022-10-23T16:14:43.277Z,12.60
2022-10-23T16:17:46.573Z,12.60
2022-10-23T16:20:55.198Z,13.60
2022-10-23T16:24:00.890Z,16.20
2022-10-23T16:27:03.924Z,17.90
2022-10-23T16:30:09.552Z,18.70
2022-10-23T16:33:13.771Z,18.60
2022-10-23T16:36:17.921Z,18.10
2022-10-23T16:39:39.473Z,18.90
2022-10-23T16:43:17.849Z,17.40
2022-10-23T16:46:30.054Z,21.00
2022-10-23T16:49:33.099Z,20.10
2022-10-23T16:52:36.040Z,21.30
2022-10-23T16:55:40.799Z,22.30
2022-10-23T16:58:44.457Z,22.80
2022-10-23T17:01:48.097Z,26.80
2022-10-23T17:04:51.178Z,26.50
2022-10-23T17:07:54.612Z,26.00
2022-10-23T17:11:28.262Z,26.00
2022-10-23T17:14:31.258Z,28.60
2022-10-23T17:17:34.275Z,28.60
2022-10-23T17:20:37.281Z,28.20
2022-10-23T17:23:41.222Z,29.40
2022-10-23T17:26:44.256Z,25.40
2022-10-23T17:29:47.426Z,25.20
2022-10-23T17:32:50.599Z,26.00
2022-10-23T17:35:53.563Z,24.40
2022-10-23T17:38:57.214Z,25.30
2022-10-23T17:42:00.125Z,24.30
2022-10-23T17:45:03.295Z,22.90
2022-10-23T17:48:06.528Z,19.50
2022-10-23T17:51:19.469Z,20.30
2022-10-23T17:54:23.835Z,22.00
2022-10-23T17:57:26.711Z,22.00
2022-10-23T18:00:29.603Z,21.00
2022-10-23T18:03:33.160Z,22.30
2022-10-23T18:06:56.257Z,24.60
2022-10-23T18:09:59.123Z,24.20
2022-10-23T18:13:02.704Z,27.00
2022-10-23T18:16:08.267Z,25.40
2022-10-23T18:19:11.225Z,28.30
2022-10-23T18:22:14.116Z,27.20
2022-10-23T18:25:16.992Z,26.60
2022-10-23T18:28:20.461Z,27.70
2022-10-23T18:31:27.957Z,27.50
2022-10-23T18:34:30.902Z,28.20
2022-10-23T18:37:36.586Z,26.80
2022-10-23T18:40:43.491Z,24.70
2022-10-23T18:43:46.682Z,24.40
2022-10-23T18:46:50.056Z,24.50
2022-10-23T18:49:53.217Z,23.70
2022-10-23T18:52:57.284Z,22.90
2022-10-23T18:56:00.835Z,20.70
2022-10-23T18:59:05.863Z,21.80
2022-10-23T19:02:10.890Z,20.20
2022-10-23T19:05:13.867Z,20.60
2022-10-23T19:08:17.091Z,20.80
2022-10-23T19:11:23.079Z,19.10
2022-10-23T19:14:28.747Z,18.80
2022-10-23T19:17:32.653Z,20.60
2022-10-23T19:20:36.159Z,19.60
2022-10-23T19:23:42.040Z,21.30
2022-10-23T19:26:45.057Z,21.00
2022-10-23T19:29:50.288Z,20.80
2022-10-23T19:32:53.344Z,22.60
2022-10-23T19:35:56.208Z,22.10
2022-10-23T19:38:59.027Z,22.90
2022-10-23T19:42:01.925Z,21.90
2022-10-23T19:45:06.790Z,22.40
2022-10-23T19:48:09.805Z,22.50
2022-10-23T19:51:13.575Z,21.60
2022-10-23T19:54:16.628Z,21.40
2022-10-23T19:57:22.470Z,22.40
2022-10-23T20:00:25.777Z,25.00
2022-10-23T20:03:28.628Z,25.80
2022-10-23T20:06:34.724Z,28.20
2022-10-23T20:09:37.731Z,29.10
2022-10-23T20:12:44.440Z,30.50
2022-10-23T20:15:55.296Z,31.00
2022-10-23T20:18:58.742Z,33.60
2022-10-23T20:22:01.647Z,32.30
2022-10-23T20:25:05.140Z,40.50
2022-10-23T20:28:10.273Z,39.20
2022-10-23T20:31:16.421Z,38.80
2022-10-23T20:34:19.655Z,39.00
2022-10-23T20:37:22.823Z,38.90
2022-10-23T20:40:25.665Z,40.10
2022-10-23T20:43:28.587Z,39.20
2022-10-23T20:46:32.125Z,37.70
2022-10-23T20:49:35.117Z,39.30
2022-10-23T20:52:38.035Z,36.50
2022-10-23T20:55:42.607Z,34.00
2022-10-23T20:58:45.767Z,34.00
2022-10-23T21:01:51.160Z,33.00
2022-10-23T21:04:54.191Z,34.90
2022-10-23T21:07:57.033Z,31.50
2022-10-23T21:10:59.920Z,32.60
2022-10-23T21:14:03.793Z,30.10
2022-10-23T21:17:08.624Z,30.30
2022-10-23T21:20:11.463Z,28.80
2022-10-23T21:23:14.349Z,30.10
2022-10-23T21:26:19.515Z,28.70
2022-10-23T21:29:22.407Z,28.40
2022-10-23T21:32:25.291Z,29.50
2022-10-23T21:35:30.053Z,27.60
2022-10-23T21:38:33.614Z,27.10
2022-10-23T21:41:36.573Z,28.80
2022-10-23T21:44:39.568Z,26.50
2022-10-23T21:47:43.256Z,30.20
2022-10-23T21:50:46.424Z,32.70
2022-10-23T21:53:50.387Z,34.50
2022-10-23T21:56:53.964Z,33.20
2022-10-23T21:59:57.053Z,32.40
2022-10-23T22:03:00.423Z,32.80
2022-10-23T22:06:03.395Z,34.10
2022-10-23T22:09:07.158Z,34.20
2022-10-23T22:12:11.399Z,34.10
2022-10-23T22:15:14.358Z,32.80
2022-10-23T22:18:17.191Z,32.80
2022-10-23T22:21:23.387Z,33.90
2022-10-23T22:24:26.594Z,33.60
2022-10-23T22:27:29.457Z,32.80
2022-10-23T22:30:36.481Z,35.40
2022-10-23T22:33:39.288Z,32.90
2022-10-23T22:36:42.163Z,33.80
2022-10-23T22:39:44.979Z,35.30
2022-10-23T22:42:47.830Z,35.80
2022-10-23T22:45:50.663Z,34.60
2022-10-23T22:48:55.114Z,34.40
2022-10-23T22:51:57.940Z,34.80
2022-10-23T22:55:00.762Z,34.30
2022-10-23T22:58:03.776Z,34.40
2022-10-23T23:01:21.278Z,34.30
2022-10-23T23:04:39.723Z,33.20
2022-10-23T23:07:43.523Z,32.00
2022-10-23T23:10:53.424Z,33.30
2022-10-23T23:13:56.298Z,33.20
2022-10-23T23:16:59.351Z,32.10
2022-10-23T23:20:02.144Z,31.70
2022-10-23T23:23:05.164Z,32.00
2022-10-23T23:26:09.032Z,34.70
2022-10-23T23:29:12.232Z,34.50
2022-10-23T23:32:15.043Z,33.00
2022-10-23T23:35:19.328Z,32.90
2022-10-23T23:38:22.347Z,31.90
2022-10-23T23:41:27.125Z,32.90
2022-10-23T23:44:30.087Z,33.60
2022-10-23T23:47:32.976Z,33.40
2022-10-23T23:50:36.092Z,34.20
2022-10-23T23:53:38.922Z,36.00
2022-10-23T23:56:41.879Z,35.10
2022-10-23T23:59:44.689Z,34.30
